»·PEaware :: N148WT KSNA-KCRQ

N148WT :: KSNA-KCRQ

FLIGHT INFORMATION

Flight Status: Arrived
Operator: Privately registered:
United States
More flights under this callsign
Pilot: Vlad D. (11271)
Aircraft: Unknown
(B60T)
More flights by this aircraft type
Origin: KSNA John Wayne-Orange Co
United States
Destination: KCRQ McClellan-Palomar
United States
More flights between these airports :: More routes between these airports
Route: +V25 PACIF V208 OCN
File this flight plan on PilotEdge
Remarks: I-2 checkride.
Altitude:
(Current/Filed)
7,000ft
Speed:
(Current/Filed)
200kts
Departed: 18-May-16 02:51 PM
Arrived: 18-May-16 03:20 PM
Distance/Time
Traveled:
44nm/0:29
Distance/Time
To Go:
Arrived

Flight Plot

Page will automatically refresh every two minutes.


Map Options




Map Legend


Flown Route
Filed Route
Departure Airport
Arrival Airport
Navaid (VOR, NDB)
Fix

Horizontal Profiles

Position Reports

Time Latitude Longitude Heading Altitude Ground
Speed
18-May-16 14:20 33.670225 -117.874694 23 59ft 0kts
18-May-16 14:21 33.670225 -117.874694 23 59ft 0kts
18-May-16 14:22 33.670225 -117.874694 23 59ft 0kts
18-May-16 14:23 33.670225 -117.874694 23 59ft 0kts
18-May-16 14:24 33.670227 -117.874694 23 59ft 0kts
18-May-16 14:25 33.670229 -117.874692 23 59ft 0kts
18-May-16 14:26 33.670232 -117.874691 23 59ft 0kts
18-May-16 14:27 33.670235 -117.874689 23 59ft 0kts
18-May-16 14:28 33.670238 -117.874688 23 59ft 0kts
18-May-16 14:29 33.670240 -117.874686 23 59ft 0kts
18-May-16 14:30 33.670243 -117.874685 23 59ft 0kts
18-May-16 14:31 33.670246 -117.874684 23 59ft 0kts
18-May-16 14:32 33.670249 -117.874682 23 59ft 0kts
18-May-16 14:33 33.670252 -117.874681 23 59ft 0kts
18-May-16 14:34 33.670254 -117.874679 23 59ft 0kts
18-May-16 14:35 33.670257 -117.874678 23 59ft 0kts
18-May-16 14:36 33.670260 -117.874676 23 59ft 0kts
18-May-16 14:37 33.670263 -117.874675 23 59ft 0kts
18-May-16 14:38 33.670265 -117.874674 23 59ft 0kts
18-May-16 14:39 33.670358 -117.874420 111 59ft 2kts
18-May-16 14:40 33.670851 -117.873385 28 59ft 7kts
18-May-16 14:41 33.672577 -117.872313 27 59ft 6kts
18-May-16 14:42 33.674205 -117.871310 27 59ft 6kts
18-May-16 14:43 33.675851 -117.870301 28 59ft 6kts
18-May-16 14:44 33.677516 -117.869272 27 59ft 6kts
18-May-16 14:45 33.679189 -117.868248 25 59ft 6kts
18-May-16 14:46 33.680862 -117.867214 26 59ft 6kts
18-May-16 14:47 33.681857 -117.865916 117 59ft 5kts
18-May-16 14:48 33.681691 -117.865417 99 59ft 3kts
18-May-16 14:49 33.675531 -117.869000 208 106ft 119kts
18-May-16 14:50 33.642534 -117.878582 187 1812ft 117kts
18-May-16 14:51 33.608390 -117.882578 187 3832ft 137kts
18-May-16 14:52 33.564171 -117.888502 187 5009ft 181kts
18-May-16 14:53 33.516247 -117.895992 187 6440ft 171kts
18-May-16 14:54 33.467185 -117.903968 187 7004ft 179kts
18-May-16 14:55 33.421485 -117.892418 125 7025ft 189kts
18-May-16 14:56 33.383801 -117.844636 139 7003ft 204kts
18-May-16 14:57 33.339012 -117.802509 138 7001ft 205kts
18-May-16 14:58 33.295073 -117.758493 136 7002ft 205kts
18-May-16 14:59 33.277194 -117.697137 94 7006ft 198kts
18-May-16 15:00 33.268954 -117.631855 95 7004ft 198kts
18-May-16 15:01 33.260367 -117.566566 95 7004ft 198kts
18-May-16 15:02 33.254303 -117.501027 84 6524ft 196kts
18-May-16 15:03 33.241275 -117.441757 78 5157ft 175kts
18-May-16 15:04 33.240405 -117.385472 83 5000ft 166kts
18-May-16 15:05 33.244286 -117.328618 82 4992ft 188kts
18-May-16 15:06 33.249196 -117.262232 82 4987ft 212kts
18-May-16 15:07 33.254393 -117.193041 82 5002ft 205kts
18-May-16 15:08 33.259530 -117.124559 82 5005ft 210kts
18-May-16 15:09 33.264628 -117.055457 82 5001ft 208kts
18-May-16 15:10 33.228598 -117.010170 161 3739ft 196kts
18-May-16 15:11 33.187245 -116.995314 176 3492ft 181kts
18-May-16 15:12 33.166629 -117.038778 272 3516ft 179kts
18-May-16 15:13 33.156858 -117.102432 260 3267ft 205kts
18-May-16 15:14 33.147134 -117.163465 260 2433ft 168kts
18-May-16 15:15 33.140305 -117.201940 259 1817ft 115kts
18-May-16 15:16 33.134570 -117.240325 259 941ft 120kts
18-May-16 15:17 33.129520 -117.272424 258 337ft 87kts
18-May-16 15:18 33.127410 -117.282763 224 303ft 5kts
18-May-16 15:19 33.127162 -117.283052 223 303ft 0kts
18-May-16 15:20 33.126980 -117.283255 205 303ft 3kts
18-May-16 15:21 33.127058 -117.282178 78 303ft 4kts
18-May-16 15:22 33.126697 -117.281447 77 303ft 0kts
18-May-16 15:23 33.126698 -117.281443 77 303ft 0kts
18-May-16 15:24 33.126698 -117.281443 77 303ft 0kts
18-May-16 15:25 33.126698 -117.281443 77 303ft 0kts
18-May-16 15:26 33.126698 -117.281443 77 303ft 0kts
18-May-16 15:27 33.126698 -117.281443 77 303ft 0kts
18-May-16 15:28 33.126698 -117.281443 77 303ft 0kts
18-May-16 15:29 33.126698 -117.281443 77 303ft 0kts

Navigation Log

Ident Type
Flight plan parsing failed, navigation log unavailable